Alamogordo/Holloman AFB, New Mexico
Current Conditions -  °F | °C
As of 5:58 AM on Monday 22 Dec 2014 (Local Time) from KHMN Reporting Station
Clear Clear  
Wind Chill: 26°   Ceiling: Unl
Heat Index: 32°   Visibility: 10mi
Dew Point: 28°   Wind: 7mph
Humidity: 82%   Direction: 40°NE
Pressure: 29.9"   Gusts: NA
Location:  32.85°N, 106.1°W
Report Text: KHMN 221258Z AUTO 04006KT 10SM CLR 00/M02 A2990 RMK AO2 SLP112 T00021025 $
Loading
Personal Weather Stations






























Interactive Weather Map New forecast layout! Learn more

10-Day Weather Forecast

Advertisements
Track Severe Weather on mobile